Time;durP1;ratioP1;P1;durP2;ratioP2;P2;SDS_P1;SDS_P2;PMS_P1;PMS_P2;Temp;Humidity;BMP_temperature;BMP_pressure;BME280_temperature;BME280_humidity;BME280_pressure;Samples;Min_cycle;Max_cycle;Signal;HPM_P1;HPM_P2
2022/12/27 00:02:43;;;;;;;;;19.25;18.25;;;;;8.61;77.34;102012.09;146625;575;47010;-71
2022/12/27 00:05:42;;;;;;;;;20.00;17.75;;;;;8.61;77.04;102017.25;146625;734;45017;-71
2022/12/27 00:08:41;;;;;;;;;19.50;17.00;;;;;8.59;77.07;102016.22;146626;570;46010;-72
2022/12/27 00:11:42;;;;;;;;;16.00;13.50;;;;;8.61;77.76;102020.75;146626;641;45016;-70
2022/12/27 00:14:41;;;;;;;;;16.75;14.25;;;;;8.60;77.46;102018.94;146626;609;45027;-70
2022/12/27 00:17:42;;;;;;;;;18.75;16.00;;;;;8.59;77.06;102018.81;146628;650;45012;-70
2022/12/27 00:20:40;;;;;;;;;16.50;14.00;;;;;8.59;76.95;102016.22;146622;612;45021;-67
2022/12/27 00:23:51;;;;;;;;;20.00;17.50;;;;;8.57;76.57;102016.13;146627;619;45016;-66
2022/12/27 00:26:55;;;;;;;;;16.50;16.25;;;;;8.52;76.80;102015.75;146620;604;46020;-67
2022/12/27 00:29:50;;;;;;;;;16.25;15.25;;;;;8.50;76.75;102009.56;146624;590;45920;-69
2022/12/27 00:32:47;;;;;;;;;19.00;14.50;;;;;8.49;77.04;102017.19;146629;621;45020;-72
2022/12/27 00:35:59;;;;;;;;;19.00;14.25;;;;;8.48;77.07;102007.62;146626;663;45017;-68
2022/12/27 00:38:54;;;;;;;;;16.75;14.00;;;;;8.43;76.74;102015.00;146629;570;45020;-67
2022/12/27 00:41:51;;;;;;;;;15.00;15.00;;;;;8.42;77.04;102009.72;146624;597;45921;-66
2022/12/27 00:44:47;;;;;;;;;48.25;38.50;;;;;8.43;77.70;102014.09;146627;631;45020;-68
2022/12/27 00:47:40;;;;;;;;;12.25;12.25;;;;;8.42;78.26;102013.19;146624;651;45918;-68
2022/12/27 00:50:57;;;;;;;;;14.25;12.00;;;;;8.39;78.48;102017.22;146625;607;46011;-68
2022/12/27 00:54:11;;;;;;;;;14.50;12.75;;;;;8.34;77.18;102007.38;146625;606;46918;-68
2022/12/27 00:57:08;;;;;;;;;14.00;12.25;;;;;8.37;77.43;102013.56;146628;667;45011;-67
2022/12/27 01:00:03;;;;;;;;;12.75;11.75;;;;;8.37;77.50;102008.41;146626;579;45918;-69
2022/12/27 01:02:58;;;;;;;;;16.25;13.75;;;;;8.37;77.37;102011.00;146628;656;45020;-69
2022/12/27 01:05:55;;;;;;;;;15.25;12.50;;;;;8.34;76.73;102014.22;146623;615;46919;-69
2022/12/27 01:09:02;;;;;;;;;12.00;11.00;;;;;8.32;76.67;102015.81;146628;647;45918;-71
2022/12/27 01:12:13;;;;;;;;;14.50;12.75;;;;;8.34;76.19;102065.91;146624;575;45919;-69
2022/12/27 01:15:25;;;;;;;;;15.00;13.50;;;;;8.39;75.65;102015.53;146628;661;46010;-67
2022/12/27 01:18:32;;;;;;;;;16.00;12.75;;;;;8.41;75.51;102014.00;146624;570;45918;-66
2022/12/27 01:21:29;;;;;;;;;23.50;21.00;;;;;8.42;75.86;102008.03;146626;627;46010;-70
2022/12/27 01:24:45;;;;;;;;;20.25;19.00;;;;;8.42;75.82;102009.72;146620;651;46012;-70
2022/12/27 01:27:43;;;;;;;;;24.50;17.50;;;;;8.40;75.66;102012.16;146605;598;46020;-69
2022/12/27 01:30:36;;;;;;;;;26.00;20.50;;;;;8.33;75.47;102013.31;146603;635;46016;-69
2022/12/27 01:33:31;;;;;;;;;22.50;20.50;;;;;8.27;75.38;102006.75;146603;576;46013;-68
2022/12/27 01:36:27;;;;;;;;;26.75;21.00;;;;;8.16;75.58;101998.16;146601;598;46012;-68
2022/12/27 01:39:23;;;;;;;;;24.25;23.75;;;;;8.05;76.31;101998.94;146604;629;47010;-68
2022/12/27 01:45:52;;;;;;;;;30.00;28.25;;;;;7.95;76.12;102010.22;146607;572;46020;-67
2022/12/27 01:48:48;;;;;;;;;27.25;24.50;;;;;7.86;76.17;101999.13;146605;614;46017;-69
2022/12/27 01:51:46;;;;;;;;;29.75;26.75;;;;;7.75;76.67;101995.66;146605;582;46010;-68
2022/12/27 01:54:48;;;;;;;;;34.75;28.00;;;;;7.66;77.09;101994.88;146602;566;46016;-69
2022/12/27 01:57:46;;;;;;;;;28.75;21.25;;;;;7.59;76.95;101995.16;146609;588;46010;-69
2022/12/27 02:00:40;;;;;;;;;16.25;15.00;;;;;7.54;78.10;101994.78;146602;584;46016;-68
2022/12/27 02:04:06;;;;;;;;;18.25;17.00;;;;;7.52;79.76;101992.84;146604;588;48011;-68
2022/12/27 02:07:09;;;;;;;;;17.75;15.75;;;;;7.50;79.84;102000.44;146599;601;46016;-69
2022/12/27 02:10:06;;;;;;;;;24.25;20.50;;;;;7.49;79.88;101990.91;146605;598;46020;-68
2022/12/27 02:13:19;;;;;;;;;24.50;21.00;;;;;4.27;78.09;101417.69;146600;583;46016;-67
2022/12/27 02:16:26;;;;;;;;;24.75;22.50;;;;;7.52;78.99;101982.53;146606;635;46020;-67
2022/12/27 02:19:49;;;;;;;;;22.25;20.00;;;;;7.58;78.75;101980.44;146601;569;46017;-68
2022/12/27 02:26:49;;;;;;;;;22.75;19.25;;;;;7.60;79.42;101976.31;146627;599;45016;-68
2022/12/27 02:30:12;;;;;;;;;26.00;18.75;;;;;4.56;78.86;101442.41;146625;616;45020;-67
2022/12/27 02:33:15;;;;;;;;;25.00;17.25;;;;;7.54;79.17;101975.78;146628;581;45012;-68
2022/12/27 02:36:13;;;;;;;;;16.50;13.00;;;;;7.53;81.08;101974.00;146628;565;45010;-67
2022/12/27 02:39:27;;;;;;;;;18.50;16.50;;;;;4.25;79.48;101402.91;146627;569;45016;-67
2022/12/27 02:53:34;;;;;;;;;12.75;11.75;;;;;7.50;79.48;101968.56;146625;583;45014;-66
2022/12/27 02:57:21;;;;;;;;;17.25;13.50;;;;;7.52;79.56;101969.63;146625;614;46010;-67
2022/12/27 03:03:58;;;;;;;;;13.75;10.75;;;;;7.57;79.08;101966.66;146630;605;45011;-68
2022/12/27 03:07:28;;;;;;;;;15.00;12.00;;;;;7.61;79.14;101967.81;146626;569;45033;-69
2022/12/27 03:18:27;;;;;;;;;12.50;10.50;;;;;7.57;78.19;101965.72;146624;637;46020;-71
2022/12/27 03:35:23;;;;;;;;;13.00;9.00;;;;;7.55;78.18;101968.19;146608;600;46016;-70
2022/12/27 03:38:19;;;;;;;;;17.75;14.25;;;;;7.58;78.68;101967.53;146614;583;46020;-69
2022/12/27 03:44:31;;;;;;;;;9.50;8.50;;;;;7.55;78.20;101972.44;146613;586;46020;-68
2022/12/27 03:48:10;;;;;;;;;13.25;12.50;;;;;7.50;77.28;101964.31;146610;578;46016;-73
2022/12/27 03:51:10;;;;;;;;;14.25;11.50;;;;;7.45;77.46;101964.72;146608;587;48010;-74
2022/12/27 03:54:24;;;;;;;;;12.75;10.00;;;;;4.32;76.73;101418.06;146611;598;46023;-74
2022/12/27 03:57:50;;;;;;;;;13.00;11.75;;;;;7.37;77.56;101954.66;146610;601;46020;-66
2022/12/27 04:00:49;;;;;;;;;13.75;10.25;;;;;7.30;78.07;101962.66;146609;597;46012;-69
2022/12/27 04:03:41;;;;;;;;;11.75;10.50;;;;;7.20;78.14;101966.94;146610;564;46021;-70
2022/12/27 04:07:02;;;;;;;;;17.00;12.25;;;;;7.10;78.42;101966.16;146608;569;46036;-69
2022/12/27 04:35:55;;;;;;;;;11.75;11.00;;;;;6.95;80.39;101954.53;146604;582;46010;-69
2022/12/27 04:38:57;;;;;;;;;10.00;10.00;;;;;6.96;80.67;101958.91;146602;611;46017;-67
2022/12/27 04:55:02;;;;;;;;;12.75;10.50;;;;;6.86;80.06;101964.94;146604;593;46012;-70
2022/12/27 04:58:04;;;;;;;;;12.50;12.50;;;;;6.80;80.17;101961.84;146600;575;46016;-68
2022/12/27 05:04:19;;;;;;;;;13.50;10.50;;;;;6.70;80.32;101967.88;146604;577;46012;-68
2022/12/27 05:14:01;;;;;;;;;14.75;9.50;;;;;6.69;80.88;101965.16;146605;564;46010;-69
2022/12/27 05:17:19;;;;;;;;;10.50;10.50;;;;;6.71;80.17;101972.25;146602;611;47014;-68
2022/12/27 05:20:18;;;;;;;;;10.50;8.50;;;;;6.72;80.29;101971.47;146606;577;46020;-69
2022/12/27 05:26:38;;;;;;;;;11.00;10.50;;;;;6.71;80.23;101974.84;146628;619;45020;-69
2022/12/27 05:29:34;;;;;;;;;13.25;9.75;;;;;6.72;80.05;101979.22;146628;571;45015;-69
2022/12/27 05:32:33;;;;;;;;;12.50;10.50;;;;;6.75;79.74;101976.00;146623;591;46021;-69
2022/12/27 05:35:52;;;;;;;;;13.50;12.00;;;;;3.59;79.00;101423.63;146629;668;45014;-69
2022/12/27 05:38:57;;;;;;;;;10.25;8.75;;;;;6.70;79.55;101977.31;146626;624;45021;-70
2022/12/27 05:41:57;;;;;;;;;14.25;11.50;;;;;6.58;79.34;101960.78;146627;563;45918;-68
2022/12/27 05:45:01;;;;;;;;;13.00;11.50;;;;;6.68;79.59;101973.69;146629;596;45011;-68
2022/12/27 05:48:23;;;;;;;;;11.75;9.50;;;;;6.66;79.25;101978.69;146627;609;45027;-69
2022/12/27 05:51:26;;;;;;;;;16.00;12.00;;;;;6.65;80.01;101979.47;146629;569;45020;-68
2022/12/27 05:57:30;;;;;;;;;16.00;14.50;;;;;6.65;81.36;101983.72;146628;611;47008;-69
2022/12/27 06:00:33;;;;;;;;;29.50;23.75;;;;;6.64;81.39;101979.34;146624;569;45918;-71
2022/12/27 06:03:34;;;;;;;;;21.50;18.50;;;;;6.69;81.31;101980.62;146627;704;45020;-71
2022/12/27 06:06:29;;;;;;;;;66.50;50.75;;;;;6.71;82.00;101980.00;146627;571;45012;-71
2022/12/27 06:09:43;;;;;;;;;;;;;;;;;;;;;
2022/12/27 06:12:37;;;;;;;;;36.50;32.25;;;;;6.65;82.31;101960.53;146628;565;45027;-72
2022/12/27 06:15:40;;;;;;;;;27.00;24.50;;;;;3.68;81.91;101424.47;146626;614;45021;-72
2022/12/27 06:18:49;;;;;;;;;29.25;25.75;;;;;3.66;80.85;101412.25;146625;575;45918;-73
2022/12/27 06:21:43;;;;;;;;;34.50;31.50;;;;;6.93;81.78;101977.59;146627;596;46011;-72
2022/12/27 06:24:48;;;;;;;;;;;;;;;;;;;;;
2022/12/27 06:27:52;;;;;;;;;41.00;33.75;;;;;7.02;81.46;101976.59;146603;595;46020;-72
2022/12/27 06:31:01;;;;;;;;;38.75;32.00;;;;;7.08;81.83;101974.53;146602;616;46014;-73
2022/12/27 06:34:10;;;;;;;;;;;;;;;;;;;;;
2022/12/27 06:37:02;;;;;;;;;34.50;30.50;;;;;6.85;81.49;101927.06;146605;593;46012;-72
2022/12/27 06:40:07;;;;;;;;;30.50;25.00;;;;;7.28;82.07;101991.69;146602;624;46010;-72
2022/12/27 06:43:09;;;;;;;;;27.50;24.50;;;;;7.38;81.38;101996.84;146605;581;46014;-71
2022/12/27 06:46:09;;;;;;;;;27.75;25.25;;;;;7.51;82.75;101986.78;146606;602;46021;-69
2022/12/27 06:49:01;;;;;;;;;24.50;22.00;;;;;7.76;83.27;101969.06;146603;597;46016;-69
2022/12/27 06:51:58;;;;;;;;;21.75;21.50;;;;;8.60;85.00;101999.94;146608;797;46010;-68
2022/12/27 06:55:14;;;;;;;;;26.50;22.75;;;;;6.52;84.85;101460.37;146599;609;48014;-70
2022/12/27 06:58:06;;;;;;;;;29.25;24.75;;;;;10.33;82.82;102003.66;146606;629;46020;-71
2022/12/27 07:01:03;;;;;;;;;28.50;24.50;;;;;11.04;80.65;102003.50;146598;595;46025;-69
2022/12/27 07:04:04;;;;;;;;;20.50;19.25;;;;;11.78;76.86;101997.31;146604;600;46020;-69
2022/12/27 07:07:08;;;;;;;;;20.50;19.00;;;;;12.52;74.04;102004.72;146604;606;46017;-68
2022/12/27 07:10:07;;;;;;;;;46.50;37.75;;;;;13.29;71.43;102005.22;146600;602;48010;-70
2022/12/27 07:12:59;;;;;;;;;36.00;32.75;;;;;14.03;69.47;102002.66;146603;632;46016;-70
2022/12/27 07:16:01;;;;;;;;;32.00;27.25;;;;;14.80;67.31;101996.56;146605;573;46021;-72
2022/12/27 07:19:07;;;;;;;;;37.25;31.50;;;;;15.64;63.61;102000.97;146600;614;46016;-72
2022/12/27 07:22:07;;;;;;;;;40.75;32.75;;;;;16.41;62.69;101994.31;146603;578;47012;-69
2022/12/27 07:25:04;;;;;;;;;50.00;38.75;;;;;17.08;59.95;101983.47;146601;571;46016;-70
2022/12/27 07:28:03;;;;;;;;;56.00;43.75;;;;;17.88;57.24;102006.22;146604;573;46020;-70
2022/12/27 07:30:56;;;;;;;;;66.75;50.50;;;;;18.41;54.61;102006.59;146602;609;47014;-70
2022/12/27 07:34:07;;;;;;;;;;;;;;;;;;;;;
2022/12/27 07:37:00;;;;;;;;;69.25;55.25;;;;;18.96;51.70;101998.25;146599;628;46017;-67
2022/12/27 07:39:58;;;;;;;;;66.75;53.00;;;;;19.01;50.83;101993.16;146598;615;47035;-67
2022/12/27 07:43:07;;;;;;;;;68.25;55.25;;;;;19.00;50.01;101992.25;146598;622;47016;-67
2022/12/27 07:46:29;;;;;;;;;76.50;63.50;;;;;18.87;51.58;101990.00;146604;573;46011;-67
2022/12/27 07:49:31;;;;;;;;;70.75;55.50;;;;;18.69;50.39;101990.16;146599;569;47035;-67
2022/12/27 07:52:26;;;;;;;;;68.00;55.75;;;;;18.39;50.05;101993.41;146602;688;47011;-67
2022/12/27 07:55:22;;;;;;;;;61.00;47.00;;;;;18.04;50.08;101989.37;146602;610;46014;-69
2022/12/27 07:58:14;;;;;;;;;63.50;48.00;;;;;17.65;51.07;101996.44;146602;647;46010;-70
2022/12/27 08:01:13;;;;;;;;;60.50;47.25;;;;;17.24;52.98;102001.69;146602;577;46016;-68
2022/12/27 08:04:06;;;;;;;;;62.75;47.50;;;;;16.93;53.74;101995.87;146602;596;46010;-69
2022/12/27 08:07:25;;;;;;;;;60.00;47.25;;;;;16.60;54.85;101997.00;146603;601;46017;-69
2022/12/27 08:10:32;;;;;;;;;56.25;45.75;;;;;16.22;56.98;102003.00;146606;654;46010;-77
2022/12/27 08:13:48;;;;;;;;;74.00;61.25;;;;;13.26;57.55;101514.47;146600;569;46012;-67
2022/12/27 08:16:43;;;;;;;;;49.25;37.50;;;;;15.84;57.85;101990.66;146603;589;46020;-67
2022/12/27 08:19:38;;;;;;;;;61.50;48.75;;;;;15.69;57.31;101996.91;146599;569;47012;-66
2022/12/27 08:22:44;;;;;;;;;62.75;50.00;;;;;12.87;59.16;101527.12;146606;665;46021;-67
2022/12/27 08:25:52;;;;;;;;;;;;;;;;;;;;;
2022/12/27 08:28:49;;;;;;;;;68.75;52.00;;;;;15.50;59.37;102001.97;146610;584;46013;-70
2022/12/27 08:31:42;;;;;;;;;70.00;57.00;;;;;15.56;58.96;101991.84;146606;601;46016;-67
2022/12/27 08:34:41;;;;;;;;;65.50;50.75;;;;;15.50;58.24;101996.75;146611;590;47010;-67
2022/12/27 08:37:33;;;;;;;;;66.00;51.50;;;;;15.40;59.11;101994.50;146610;573;46013;-67
2022/12/27 08:40:34;;;;;;;;;67.25;52.50;;;;;15.34;60.31;101994.16;146611;564;47042;-71
2022/12/27 08:43:45;;;;;;;;;73.00;57.00;;;;;15.38;61.05;101996.13;146607;573;46017;-72
2022/12/27 08:46:59;;;;;;;;;;;;;;;;;;;;;
2022/12/27 08:50:01;;;;;;;;;68.50;54.00;;;;;15.68;59.95;101992.50;146610;569;46916;-69
2022/12/27 08:53:03;;;;;;;;;64.00;50.00;;;;;15.79;59.78;102000.88;146614;614;46020;-69
2022/12/27 08:55:58;;;;;;;;;68.00;51.50;;;;;15.81;60.36;101990.50;146605;582;46016;-69
2022/12/27 08:58:58;;;;;;;;;66.50;51.75;;;;;15.92;60.11;101999.78;146612;583;46021;-69
2022/12/27 09:01:55;;;;;;;;;63.25;50.00;;;;;15.99;59.71;101986.19;146606;571;46016;-70
2022/12/27 09:04:54;;;;;;;;;66.25;48.75;;;;;16.07;60.46;101983.94;146612;713;46020;-70
2022/12/27 09:07:51;;;;;;;;;65.25;51.50;;;;;16.17;59.77;101987.09;146610;622;46013;-70
2022/12/27 09:10:43;;;;;;;;;65.50;50.50;;;;;16.27;58.95;101980.56;146608;596;47010;-69
2022/12/27 09:13:38;;;;;;;;;60.00;46.25;;;;;16.30;58.33;101971.97;146606;574;46015;-70
2022/12/27 09:16:39;;;;;;;;;60.00;45.75;;;;;16.38;59.93;101973.22;146614;679;46010;-69
2022/12/27 09:19:38;;;;;;;;;62.50;49.50;;;;;16.50;59.66;101972.91;146609;590;47012;-70
2022/12/27 09:22:43;;;;;;;;;54.50;42.00;;;;;16.68;59.28;101967.62;146612;571;46031;-69
2022/12/27 09:25:44;;;;;;;;;48.75;39.50;;;;;16.82;58.38;101956.09;146605;610;46012;-70
2022/12/27 09:28:53;;;;;;;;;;;;;;;;;;;;;
2022/12/27 09:31:57;;;;;;;;;46.75;37.75;;;;;16.93;59.53;101952.25;146601;619;46016;-69
2022/12/27 09:35:16;;;;;;;;;49.75;37.50;;;;;16.94;60.30;101953.13;146605;621;46028;-69
2022/12/27 09:38:17;;;;;;;;;49.75;40.25;;;;;17.00;60.69;101951.69;146602;619;46016;-68
2022/12/27 09:41:54;;;;;;;;;57.75;43.25;;;;;14.58;59.96;101506.41;146603;582;47010;-69
2022/12/27 09:45:16;;;;;;;;;54.00;40.75;;;;;17.15;60.11;101934.84;146604;577;46917;-69
2022/12/27 09:48:38;;;;;;;;;51.25;41.25;;;;;14.74;58.84;101497.56;146608;575;46026;-69
2022/12/27 09:52:10;;;;;;;;;42.00;36.00;;;;;17.34;59.71;101936.53;146600;602;46016;-69
2022/12/27 09:55:22;;;;;;;;;23.75;22.25;;;;;17.38;60.30;101936.72;146606;720;46020;-69
2022/12/27 09:58:41;;;;;;;;;20.75;18.25;;;;;17.44;61.13;101936.97;146603;684;46013;-70
2022/12/27 10:01:55;;;;;;;;;25.00;20.50;;;;;15.03;60.55;101496.28;146605;582;46020;-69
2022/12/27 10:04:53;;;;;;;;;27.25;24.25;;;;;17.60;59.73;101919.28;146604;609;46016;-69
2022/12/27 10:08:27;;;;;;;;;27.50;23.75;;;;;17.66;60.20;101916.91;146606;590;46010;-69
2022/12/27 10:12:06;;;;;;;;;22.75;19.50;;;;;17.73;59.66;101912.00;146603;595;46016;-69
2022/12/27 10:15:45;;;;;;;;;17.25;15.50;;;;;15.41;59.21;101468.34;146602;602;46010;-69
2022/12/27 10:19:19;;;;;;;;;18.50;16.00;;;;;18.06;58.20;101895.81;146600;619;47918;-69
2022/12/27 10:22:50;;;;;;;;;23.75;19.50;;;;;15.75;58.21;101460.25;146607;601;46020;-68
2022/12/27 10:25:44;;;;;;;;;19.50;18.00;;;;;18.19;56.75;101871.88;146601;605;46016;-69
2022/12/27 10:28:56;;;;;;;;;22.00;21.00;;;;;18.16;55.65;101869.12;146612;580;46021;-69
2022/12/27 10:31:50;;;;;;;;;25.75;23.75;;;;;18.09;57.30;101855.69;146607;719;47014;-68
2022/12/27 10:34:43;;;;;;;;;24.75;22.00;;;;;18.10;56.22;101858.38;146612;632;46020;-67
2022/12/27 10:37:35;;;;;;;;;21.50;18.50;;;;;18.11;55.70;101859.28;146610;615;46012;-69
2022/12/27 10:40:42;;;;;;;;;17.00;14.00;;;;;18.07;54.92;101846.84;146617;588;48010;-67
2022/12/27 10:43:51;;;;;;;;;16.75;15.00;;;;;17.97;56.82;101846.53;146609;615;46016;-67
2022/12/27 10:46:47;;;;;;;;;25.75;20.50;;;;;17.91;57.53;101840.13;146609;576;46020;-68
2022/12/27 10:49:45;;;;;;;;;23.50;19.50;;;;;17.91;56.72;101840.13;146606;599;46016;-68
2022/12/27 10:52:42;;;;;;;;;21.00;18.25;;;;;17.86;56.59;101833.81;146610;610;46021;-67
2022/12/27 10:55:45;;;;;;;;;17.25;16.25;;;;;17.84;57.32;101825.88;146608;686;46918;-69
2022/12/27 10:59:01;;;;;;;;;27.00;22.50;;;;;17.87;58.01;101819.84;146612;614;46021;-68
2022/12/27 11:02:27;;;;;;;;;23.50;21.00;;;;;15.63;58.27;101410.91;146600;584;46016;-68
2022/12/27 11:05:38;;;;;;;;;24.25;20.75;;;;;18.03;57.98;101810.84;146615;614;46022;-67
2022/12/27 11:08:37;;;;;;;;;20.75;16.75;;;;;18.07;57.08;101811.03;146609;664;46012;-68
2022/12/27 11:11:36;;;;;;;;;20.25;17.75;;;;;18.12;55.40;101809.44;146610;592;46032;-67
2022/12/27 11:14:31;;;;;;;;;19.50;17.75;;;;;18.12;55.96;101805.94;146606;602;46014;-67
2022/12/27 11:17:33;;;;;;;;;13.25;12.50;;;;;18.08;55.80;101809.28;146608;629;46020;-68
2022/12/27 11:20:55;;;;;;;;;22.25;21.75;;;;;15.80;57.32;101400.31;146609;605;46918;-68
2022/12/27 11:24:09;;;;;;;;;22.50;18.00;;;;;15.71;56.95;101377.31;146612;609;47010;-67
2022/12/27 11:27:07;;;;;;;;;16.25;15.25;;;;;18.24;55.72;101807.28;146625;626;45918;-67
2022/12/27 11:30:40;;;;;;;;;22.75;16.75;;;;;15.73;57.62;101362.53;146629;610;45010;-68
2022/12/27 11:34:01;;;;;;;;;24.75;21.00;;;;;15.81;57.81;101355.03;146627;563;46012;-69
2022/12/27 11:37:15;;;;;;;;;22.50;20.75;;;;;18.40;56.89;101789.47;146628;609;45021;-69
2022/12/27 11:40:33;;;;;;;;;18.75;17.50;;;;;18.54;57.12;101795.25;146625;570;45016;-69
2022/12/27 11:43:33;;;;;;;;;21.25;17.50;;;;;18.68;55.75;101789.59;146629;579;45013;-69
2022/12/27 11:47:01;;;;;;;;;18.75;17.75;;;;;18.84;56.06;101772.66;146626;666;45918;-69
2022/12/27 11:50:26;;;;;;;;;;;;;;;;;;;;;
2022/12/27 11:54:23;;;;;;;;;18.00;16.25;;;;;16.47;56.34;101326.16;146626;639;45016;-68
2022/12/27 11:58:28;;;;;;;;;19.75;18.50;;;;;16.60;56.12;101352.84;146626;587;46011;-68
2022/12/27 12:01:56;;;;;;;;;19.75;16.50;;;;;19.27;56.46;101757.44;146622;572;46014;-68
2022/12/27 12:05:31;;;;;;;;;19.25;19.00;;;;;17.06;55.53;101314.31;146630;706;45011;-68
2022/12/27 12:09:25;;;;;;;;;;;;;;;;;;;;;
2022/12/27 12:13:12;;;;;;;;;17.75;14.25;;;;;17.33;54.81;101348.44;146627;650;45021;-71
2022/12/27 12:16:50;;;;;;;;;14.75;14.00;;;;;17.06;51.99;101317.84;146627;611;45012;-69
2022/12/27 12:20:29;;;;;;;;;18.00;15.50;;;;;19.35;54.12;101742.81;146629;570;45010;-70
2022/12/27 12:24:26;;;;;;;;;18.75;17.00;;;;;16.71;54.90;101318.31;146624;590;45918;-69
2022/12/27 12:28:05;;;;;;;;;19.75;18.25;;;;;16.61;52.83;101317.97;146625;577;46010;-69
2022/12/27 12:31:44;;;;;;;;;22.00;16.00;;;;;16.64;55.18;101338.16;146627;600;45016;-69
2022/12/27 12:35:12;;;;;;;;;14.50;12.75;;;;;16.65;55.20;101329.44;146626;662;45010;-70
2022/12/27 12:38:59;;;;;;;;;18.25;17.25;;;;;16.69;54.42;101322.59;146626;576;45012;-69
2022/12/27 12:42:43;;;;;;;;;16.50;13.75;;;;;19.39;55.86;101742.06;146625;601;45021;-68
2022/12/27 12:46:30;;;;;;;;;19.00;14.00;;;;;19.82;53.34;101735.50;146624;575;46030;-70
2022/12/27 12:50:23;;;;;;;;;21.25;16.50;;;;;17.71;52.92;101327.81;146622;601;45021;-70
2022/12/27 12:53:55;;;;;;;;;19.75;15.00;;;;;17.59;53.02;101309.06;146625;636;46016;-70
2022/12/27 12:57:16;;;;;;;;;13.50;13.50;;;;;19.92;53.36;101745.44;146626;641;45917;-70
2022/12/27 13:00:43;;;;;;;;;18.00;13.25;;;;;19.90;52.35;101746.25;146627;587;45918;-68
2022/12/27 13:04:28;;;;;;;;;20.25;17.50;;;;;17.37;50.16;101316.25;146628;576;44863;-69
2022/12/27 13:08:29;;;;;;;;;23.25;20.00;;;;;17.18;53.69;101313.84;146623;564;45016;-69
2022/12/27 13:12:14;;;;;;;;;17.50;16.00;;;;;19.71;54.20;101750.06;146628;570;45011;-70
2022/12/27 13:15:32;;;;;;;;;31.25;26.50;;;;;19.70;52.79;101743.91;146626;597;45016;-70
2022/12/27 13:19:01;;;;;;;;;34.00;27.50;;;;;19.74;54.04;101748.41;146629;602;45011;-69
2022/12/27 13:22:59;;;;;;;;;22.75;20.25;;;;;19.98;51.59;101748.25;146626;589;45918;-69
2022/12/27 13:26:21;;;;;;;;;18.25;17.00;;;;;17.46;48.44;101316.53;146616;592;46011;-69
2022/12/27 13:29:56;;;;;;;;;21.50;18.00;;;;;19.86;54.16;101760.16;146601;569;46014;-69
2022/12/27 13:33:13;;;;;;;;;14.25;12.75;;;;;19.61;49.09;101752.37;146604;574;47010;-70
2022/12/27 13:36:44;;;;;;;;;;;;;;;;;;;;;
2022/12/27 13:40:26;;;;;;;;;13.33;13.00;;;;;16.57;52.13;101315.19;146606;729;46020;-70
2022/12/27 13:44:22;;;;;;;;;15.33;13.33;;;;;19.09;55.61;101795.41;146601;619;46016;-71
2022/12/27 13:48:05;;;;;;;;;13.67;11.67;;;;;16.76;52.51;101327.22;146603;652;46012;-70
2022/12/27 13:51:24;;;;;;;;;16.50;13.25;;;;;19.38;51.17;101762.19;146598;565;47014;-70
2022/12/27 13:55:08;;;;;;;;;36.50;29.75;;;;;19.53;53.05;101766.13;146604;586;46010;-70
2022/12/27 13:58:48;;;;;;;;;27.25;25.50;;;;;19.57;50.50;101760.16;146604;592;46016;-69
2022/12/27 14:02:06;;;;;;;;;15.75;13.75;;;;;19.57;52.54;101770.69;146606;571;46010;-69
2022/12/27 14:05:39;;;;;;;;;11.25;10.25;;;;;19.75;54.25;101768.66;146604;625;46017;-70
2022/12/27 14:09:19;;;;;;;;;16.50;14.25;;;;;17.46;53.21;101347.12;146603;612;46012;-70
2022/12/27 14:12:47;;;;;;;;;20.50;17.00;;;;;19.94;52.39;101775.34;146602;619;46013;-69
2022/12/27 14:16:32;;;;;;;;;25.50;23.00;;;;;19.95;53.22;101773.59;146602;602;46020;-70
2022/12/27 14:20:10;;;;;;;;;19.50;18.25;;;;;17.44;50.99;101346.16;146604;592;46016;-69
2022/12/27 14:23:37;;;;;;;;;42.00;31.00;;;;;19.61;51.26;101778.69;146607;615;46010;-71
2022/12/27 14:27:11;;;;;;;;;18.00;17.25;;;;;19.34;50.47;101776.06;146607;595;46017;-68
2022/12/27 14:30:39;;;;;;;;;13.75;12.50;;;;;19.03;52.96;101782.06;146613;635;46010;-70
2022/12/27 14:34:15;;;;;;;;;14.75;14.00;;;;;18.85;52.34;101779.72;146609;575;47012;-69
2022/12/27 14:37:52;;;;;;;;;17.25;15.75;;;;;15.92;53.92;101341.56;146615;619;46020;-71
2022/12/27 14:41:33;;;;;;;;;19.75;17.50;;;;;18.11;54.23;101783.16;146610;608;46017;-70
2022/12/27 14:45:08;;;;;;;;;20.50;19.50;;;;;15.05;54.62;101321.37;146612;565;46020;-69
2022/12/27 14:48:37;;;;;;;;;20.75;20.00;;;;;17.33;55.92;101782.72;146606;577;46017;-70
2022/12/27 14:52:19;;;;;;;;;28.00;26.50;;;;;17.08;57.71;101782.59;146610;578;46020;-70
2022/12/27 14:55:47;;;;;;;;;22.00;20.25;;;;;14.37;57.25;101360.13;146610;596;46918;-71
2022/12/27 14:59:20;;;;;;;;;21.00;20.25;;;;;13.97;57.91;101328.69;146608;623;46916;-70
2022/12/27 15:02:41;;;;;;;;;23.00;22.25;;;;;16.45;58.52;101802.53;146605;563;46016;-70
2022/12/27 15:06:23;;;;;;;;;35.50;31.75;;;;;13.29;59.12;101288.06;146613;605;47010;-70
2022/12/27 15:10:00;;;;;;;;;29.00;22.75;;;;;13.45;58.77;101349.59;146611;624;47012;-69
2022/12/27 15:13:27;;;;;;;;;39.75;33.00;;;;;15.83;59.18;101805.78;146611;589;46020;-70
2022/12/27 15:16:50;;;;;;;;;45.50;36.50;;;;;15.59;60.06;101810.72;146603;612;48016;-70
2022/12/27 15:20:36;;;;;;;;;35.50;31.00;;;;;12.56;60.63;101325.13;146614;583;46021;-71
2022/12/27 15:24:06;;;;;;;;;52.25;40.25;;;;;15.06;61.17;101809.87;146611;623;47012;-70
2022/12/27 15:27:28;;;;;;;;;57.25;44.25;;;;;14.71;61.55;101810.69;146625;590;45021;-70
2022/12/27 15:30:52;;;;;;;;;45.75;34.50;;;;;14.38;62.72;101815.00;146625;618;45016;-67
2022/12/27 15:34:26;;;;;;;;;23.25;18.75;;;;;11.16;64.00;101300.00;146625;570;45021;-70
2022/12/27 15:38:15;;;;;;;;;23.50;21.00;;;;;13.83;64.78;101815.50;146626;659;45918;-71
2022/12/27 15:41:54;;;;;;;;;24.25;21.75;;;;;10.89;64.92;101333.00;146627;670;46012;-69
2022/12/27 15:45:15;;;;;;;;;28.75;22.25;;;;;13.54;65.89;101819.97;146626;616;45014;-71
2022/12/27 15:48:47;;;;;;;;;29.75;22.50;;;;;10.56;65.38;101306.81;146629;585;45021;-70
2022/12/27 15:52:09;;;;;;;;;29.00;27.00;;;;;13.40;66.27;101811.38;146624;598;45918;-69
2022/12/27 15:56:09;;;;;;;;;27.00;24.00;;;;;10.41;65.46;101306.78;146627;598;46010;-70
2022/12/27 15:59:37;;;;;;;;;36.00;30.50;;;;;13.34;65.81;101837.09;146623;604;45016;-70
2022/12/27 16:03:09;;;;;;;;;40.25;32.00;;;;;13.19;66.19;101815.31;146624;589;46010;-70
2022/12/27 16:06:56;;;;;;;;;43.00;33.00;;;;;13.18;66.30;101844.78;146627;583;45010;-69
2022/12/27 16:09:50;;;;;;;;;34.25;30.00;;;;;12.97;67.62;101833.13;146627;572;45020;-70
2022/12/27 16:12:48;;;;;;;;;38.00;32.00;;;;;13.03;67.71;101844.78;146625;581;45016;-68
2022/12/27 16:16:10;;;;;;;;;33.75;28.50;;;;;12.93;67.32;101850.25;146626;596;45020;-68
2022/12/27 16:19:38;;;;;;;;;44.00;34.75;;;;;12.73;67.87;101854.25;146627;641;44918;-69
2022/12/27 16:23:10;;;;;;;;;32.25;29.00;;;;;9.48;68.64;101310.44;146623;563;47010;-69
2022/12/27 16:26:13;;;;;;;;;31.75;23.00;;;;;12.40;70.06;101846.19;146616;601;46034;-68
2022/12/27 16:29:19;;;;;;;;;26.50;23.00;;;;;12.28;69.20;101848.03;146614;566;46010;-69
2022/12/27 16:32:28;;;;;;;;;41.25;32.25;;;;;12.23;69.68;101845.12;146608;671;46015;-70
2022/12/27 16:35:23;;;;;;;;;36.25;31.25;;;;;12.18;70.40;101849.19;146612;601;46010;-71
2022/12/27 16:38:34;;;;;;;;;39.00;32.50;;;;;12.14;69.86;101854.06;146606;573;46012;-70
2022/12/27 16:42:17;;;;;;;;;34.75;30.25;;;;;8.97;69.06;101308.81;146611;583;46021;-69